createdAt,value
2019-03-28T00:00:36.502Z,7.69
2019-03-28T00:05:36.523Z,7.5
2019-03-28T00:10:36.505Z,7.44
2019-03-28T00:15:36.492Z,7.44
2019-03-28T00:20:36.522Z,7.44
2019-03-28T00:25:36.529Z,7.38
2019-03-28T00:30:36.510Z,7.31
2019-03-28T00:35:36.526Z,7.31
2019-03-28T00:40:36.504Z,7.31
2019-03-28T00:45:36.518Z,7.25
2019-03-28T00:50:36.522Z,7.25
2019-03-28T00:55:37.212Z,7.25
2019-03-28T01:00:36.521Z,7.25
2019-03-28T01:05:36.538Z,7.25
2019-03-28T01:10:36.534Z,7.25
2019-03-28T01:15:36.558Z,7.25
2019-03-28T01:20:36.554Z,7.25
2019-03-28T01:25:36.563Z,7.19
2019-03-28T01:30:36.531Z,7.19
2019-03-28T01:35:36.544Z,7.13
2019-03-28T01:40:36.541Z,7.13
2019-03-28T01:45:36.543Z,7.13
2019-03-28T01:50:36.572Z,7.13
2019-03-28T01:55:36.545Z,7.13
2019-03-28T02:00:36.550Z,7.13
2019-03-28T02:05:36.539Z,7
2019-03-28T02:10:36.543Z,6.94
2019-03-28T02:15:36.557Z,6.94
2019-03-28T02:20:36.565Z,6.81
2019-03-28T02:25:36.568Z,6.69
2019-03-28T02:30:36.567Z,6.69
2019-03-28T02:35:36.604Z,6.63
2019-03-28T02:40:36.572Z,6.56
2019-03-28T02:45:36.571Z,6.56
2019-03-28T02:50:37.693Z,6.56
2019-03-28T02:55:36.577Z,6.5
2019-03-28T03:00:36.578Z,6.5
2019-03-28T03:05:36.574Z,6.5
2019-03-28T03:10:36.576Z,6.5
2019-03-28T03:15:36.574Z,6.5
2019-03-28T03:20:36.576Z,6.5
2019-03-28T03:25:36.608Z,6.44
2019-03-28T03:30:36.620Z,6.44
2019-03-28T03:35:36.605Z,6.38
2019-03-28T03:40:36.593Z,6.38
2019-03-28T03:45:36.637Z,6.38
2019-03-28T03:50:36.599Z,6.38
2019-03-28T03:55:36.598Z,6.38
2019-03-28T04:00:36.639Z,6.38
2019-03-28T04:05:36.601Z,6.38
2019-03-28T04:10:36.622Z,6.31
2019-03-28T04:15:37.916Z,6.31
2019-03-28T04:20:36.657Z,6.31
2019-03-28T04:25:46.627Z,6.31
2019-03-28T04:30:36.624Z,6.31
2019-03-28T04:35:36.625Z,6.31
2019-03-28T04:40:36.614Z,6.25
2019-03-28T04:45:36.615Z,6.25
2019-03-28T04:50:36.674Z,6.31
2019-03-28T04:55:36.626Z,6.25
2019-03-28T05:00:36.631Z,6.25
2019-03-28T05:05:36.669Z,6.31
2019-03-28T05:10:36.643Z,6.31
2019-03-28T05:15:36.630Z,6.31
2019-03-28T05:20:36.687Z,6.31
2019-03-28T05:25:36.641Z,6.31
2019-03-28T05:30:36.644Z,6.31
2019-03-28T05:35:36.673Z,6.38
2019-03-28T05:40:36.789Z,6.38
2019-03-28T05:45:36.644Z,6.44
2019-03-28T05:50:36.648Z,6.44
2019-03-28T05:55:36.636Z,6.44
2019-03-28T06:00:38.983Z,6.44
2019-03-28T06:05:36.681Z,6.5
2019-03-28T06:10:36.720Z,6.5
2019-03-28T06:15:36.656Z,6.5
2019-03-28T06:20:36.681Z,6.5
2019-03-28T06:25:39.336Z,6.56
2019-03-28T06:30:36.660Z,6.63
2019-03-28T06:35:36.680Z,6.69
2019-03-28T06:40:36.679Z,6.69
2019-03-28T06:45:36.676Z,6.75
2019-03-28T06:50:36.694Z,6.75
2019-03-28T06:55:37.083Z,6.81
2019-03-28T07:00:36.693Z,6.88
2019-03-28T07:05:36.681Z,6.94
2019-03-28T07:10:36.696Z,7
2019-03-28T07:15:36.966Z,7.06
2019-03-28T07:20:36.710Z,7.06
2019-03-28T07:25:36.695Z,7.19
2019-03-28T07:30:36.706Z,7.19
2019-03-28T07:35:36.781Z,7.19
2019-03-28T07:40:36.687Z,7.25
2019-03-28T07:45:36.698Z,7.38
2019-03-28T07:50:37.521Z,7.44
2019-03-28T07:55:36.689Z,7.5
2019-03-28T08:00:36.702Z,7.5
2019-03-28T08:05:36.730Z,7.5
2019-03-28T08:10:36.717Z,7.81
2019-03-28T08:15:36.723Z,8.06
2019-03-28T08:20:36.713Z,8.25
2019-03-28T08:25:36.721Z,8.13
2019-03-28T08:30:36.726Z,8.06
2019-03-28T08:35:36.729Z,8.13
2019-03-28T08:40:39.396Z,8.13
2019-03-28T08:45:36.745Z,8.13
2019-03-28T08:50:36.762Z,8.13
2019-03-28T08:55:36.743Z,8.13
2019-03-28T09:00:50.748Z,8.13
2019-03-28T09:05:36.768Z,8.31
2019-03-28T09:10:36.727Z,8.31
2019-03-28T09:15:43.328Z,8.31
2019-03-28T09:20:36.772Z,8.31
2019-03-28T09:25:36.753Z,8.31
2019-03-28T09:30:47.155Z,8.31
2019-03-28T09:35:36.785Z,8.31
2019-03-28T09:40:36.761Z,8.31
2019-03-28T09:45:36.747Z,8.31
2019-03-28T09:50:36.749Z,8.31
2019-03-28T09:55:36.762Z,8.31
2019-03-28T10:00:36.759Z,8.31
2019-03-28T10:05:38.068Z,8.31
2019-03-28T10:10:36.768Z,8.31
2019-03-28T10:15:37.212Z,8.31
2019-03-28T10:20:36.758Z,8.31
2019-03-28T10:25:36.772Z,8.31
2019-03-28T10:30:36.773Z,8.31
2019-03-28T10:35:36.775Z,8.31
2019-03-28T10:40:36.776Z,8.31
2019-03-28T10:45:36.773Z,8.31
2019-03-28T10:50:41.435Z,8.31
2019-03-28T10:55:36.779Z,8.31
2019-03-28T11:00:36.782Z,8.31
2019-03-28T11:05:36.828Z,8.31
2019-03-28T11:10:36.794Z,8.31
2019-03-28T11:15:36.798Z,8.31
2019-03-28T11:20:39.766Z,8.31
2019-03-28T11:25:36.787Z,8.31
2019-03-28T11:30:36.867Z,8.31
2019-03-28T11:35:36.968Z,8.31
2019-03-28T11:40:36.799Z,8.31
2019-03-28T11:45:36.808Z,8.31
2019-03-28T11:50:36.814Z,8.31
2019-03-28T11:55:36.813Z,8.31
2019-03-28T12:00:36.800Z,8.31
2019-03-28T12:05:36.827Z,8.31
2019-03-28T12:10:36.838Z,8.31
2019-03-28T12:15:36.820Z,8.31
2019-03-28T12:20:36.842Z,8.31
2019-03-28T12:25:36.817Z,8.31
2019-03-28T12:30:36.820Z,8.31
2019-03-28T12:35:36.827Z,8.31
2019-03-28T12:40:36.841Z,8.31
2019-03-28T12:45:36.836Z,8.31
2019-03-28T12:50:36.887Z,8.31
2019-03-28T12:55:36.828Z,8.31
2019-03-28T13:00:36.844Z,8.31
2019-03-28T13:05:36.831Z,8.31
2019-03-28T13:10:36.843Z,8.31
2019-03-28T13:15:36.830Z,8.31
2019-03-28T13:20:36.876Z,8.31
2019-03-28T13:25:36.861Z,8.31
2019-03-28T13:30:36.867Z,8.31
2019-03-28T13:35:37.036Z,8.31
2019-03-28T13:40:36.852Z,8.31
2019-03-28T13:45:36.868Z,8.31
2019-03-28T13:50:36.912Z,8.31
2019-03-28T13:55:36.865Z,8.31
2019-03-28T14:00:36.876Z,8.31
2019-03-28T14:05:36.940Z,8.31
2019-03-28T14:10:36.863Z,8.31
2019-03-28T14:15:36.862Z,8.31
2019-03-28T14:20:36.917Z,8.31
2019-03-28T14:25:36.883Z,8.31
2019-03-28T14:30:39.379Z,8.31
2019-03-28T14:35:36.906Z,8.31
2019-03-28T14:40:36.893Z,8.31
2019-03-28T14:45:37.041Z,8.31
2019-03-28T14:50:37.057Z,8.31
2019-03-28T14:55:36.907Z,8.31
2019-03-28T15:00:36.894Z,8.31
2019-03-28T15:05:37.231Z,8.31
2019-03-28T15:10:36.886Z,8.31
2019-03-28T15:15:36.902Z,8.31
2019-03-28T15:20:36.909Z,8.31
2019-03-28T15:25:36.896Z,8.31
2019-03-28T15:30:36.899Z,8.31
2019-03-28T15:35:36.925Z,8.31
2019-03-28T15:40:36.931Z,8.31
2019-03-28T15:45:36.899Z,8.31
2019-03-28T15:50:36.903Z,8.31
2019-03-28T15:55:36.906Z,8.31
2019-03-28T16:00:36.921Z,8.31
2019-03-28T16:05:36.950Z,8.31
2019-03-28T16:10:36.927Z,8.31
2019-03-28T16:15:36.928Z,8.31
2019-03-28T16:20:36.970Z,8.31
2019-03-28T16:25:36.940Z,8.31
2019-03-28T16:30:36.954Z,8.31
2019-03-28T16:35:36.934Z,8.31
2019-03-28T16:40:36.931Z,8.31
2019-03-28T16:45:36.949Z,8.31
2019-03-28T16:50:36.936Z,8.31
2019-03-28T16:55:36.937Z,8.31
2019-03-28T17:00:36.954Z,8.31
2019-03-28T17:05:36.955Z,8.31
2019-03-28T17:10:36.941Z,8.31
2019-03-28T17:15:36.947Z,8.31
2019-03-28T17:20:36.976Z,8.31
2019-03-28T17:25:36.958Z,8.31
2019-03-28T17:30:36.966Z,9.56
2019-03-28T17:35:36.955Z,9.5
2019-03-28T17:40:37.040Z,9.5
2019-03-28T17:45:36.964Z,9.5
2019-03-28T17:50:36.984Z,9.5
2019-03-28T17:55:36.969Z,9.44
2019-03-28T18:00:36.995Z,9.38
2019-03-28T18:05:36.968Z,9.13
2019-03-28T18:10:36.958Z,9
2019-03-28T18:15:36.996Z,8.94
2019-03-28T18:20:36.991Z,8.88
2019-03-28T18:25:36.976Z,8.88
2019-03-28T18:30:37.411Z,8.88
2019-03-28T18:35:36.973Z,8.81
2019-03-28T18:40:36.983Z,8.81
2019-03-28T18:45:36.986Z,8.81
2019-03-28T18:50:37.009Z,8.75
2019-03-28T18:55:37.016Z,8.75
2019-03-28T19:00:36.998Z,8.69
2019-03-28T19:05:37.015Z,8.63
2019-03-28T19:10:37.667Z,8.63
2019-03-28T19:15:37.007Z,8.63
2019-03-28T19:20:37.051Z,8.63
2019-03-28T19:25:37.011Z,8.63
2019-03-28T19:30:37.012Z,8.63
2019-03-28T19:35:37.005Z,8.56
2019-03-28T19:40:37.009Z,8.56
2019-03-28T19:45:37.021Z,8.5
2019-03-28T19:50:37.027Z,8.5
2019-03-28T19:55:39.666Z,8.5
2019-03-28T20:00:37.008Z,8.5
2019-03-28T20:05:47.191Z,8.44
2019-03-28T20:10:37.036Z,8.44
2019-03-28T20:15:37.033Z,8.44
2019-03-28T20:20:37.021Z,8.44
2019-03-28T20:25:37.040Z,8.5
2019-03-28T20:30:37.037Z,8.5
2019-03-28T20:35:37.159Z,8.5
2019-03-28T20:40:37.127Z,8.5
2019-03-28T20:45:37.190Z,8.5
2019-03-28T20:50:37.072Z,8.5
2019-03-28T20:55:37.087Z,8.5
2019-03-28T21:00:37.221Z,8.56
2019-03-28T21:05:37.201Z,8.56
2019-03-28T21:10:37.135Z,8.5
2019-03-28T21:15:37.056Z,8.5
2019-03-28T21:20:37.301Z,8.56
2019-03-28T21:25:37.082Z,8.56
2019-03-28T21:30:46.971Z,8.56
2019-03-28T21:35:37.066Z,8.56
2019-03-28T21:40:37.065Z,8.56
2019-03-28T21:45:37.061Z,8.56
2019-03-28T21:50:37.063Z,8.56
2019-03-28T21:55:37.074Z,8.56
2019-03-28T22:00:37.076Z,8.56
2019-03-28T22:05:37.095Z,8.5
2019-03-28T22:10:37.129Z,8.5
2019-03-28T22:15:37.090Z,8.5
2019-03-28T22:20:37.101Z,8.56
2019-03-28T22:25:37.084Z,8.56
2019-03-28T22:30:37.082Z,8.63
2019-03-28T22:35:37.195Z,8.63
2019-03-28T22:40:37.088Z,8.69
2019-03-28T22:45:37.097Z,8.63
2019-03-28T22:50:37.106Z,8.63
2019-03-28T22:55:37.101Z,8.63
2019-03-28T23:00:37.092Z,8.56
2019-03-28T23:05:37.121Z,8.56
2019-03-28T23:10:37.122Z,8.56
2019-03-28T23:15:37.231Z,8.56
2019-03-28T23:20:37.130Z,8.5
2019-03-28T23:25:37.248Z,8.5
2019-03-28T23:30:37.119Z,8.44
2019-03-28T23:35:37.129Z,8.44
2019-03-28T23:40:37.122Z,8.44
2019-03-28T23:45:37.107Z,8.44
2019-03-28T23:50:37.115Z,8.38
2019-03-28T23:55:37.130Z,8.38
